sensor_id;sensor_type;location;lat;lon;timestamp;pressure;altitude;pressure_sealevel;temperature;humidity
1776;BME280;885;42.626;23.200;2022-10-04T00:01:03;166107.97;;;10.35;90.03
1776;BME280;885;42.626;23.200;2022-10-04T00:03:36;166106.66;;;10.34;91.51
1776;BME280;885;42.626;23.200;2022-10-04T00:06:05;166088.94;;;10.28;90.90
1776;BME280;885;42.626;23.200;2022-10-04T00:08:44;166154.34;;;10.52;90.09
1776;BME280;885;42.626;23.200;2022-10-04T00:11:17;166049.41;;;10.13;91.59
1776;BME280;885;42.626;23.200;2022-10-04T00:13:48;166078.03;;;10.24;92.00
1776;BME280;885;42.626;23.200;2022-10-04T00:16:22;166069.84;;;10.21;91.13
1776;BME280;885;42.626;23.200;2022-10-04T00:19:00;165587.56;;;9.80;93.41
1776;BME280;885;42.626;23.200;2022-10-04T00:24:35;166058.94;;;10.17;90.76
1776;BME280;885;42.626;23.200;2022-10-04T00:27:11;166075.28;;;10.23;90.59
1776;BME280;885;42.626;23.200;2022-10-04T00:29:49;166113.44;;;10.37;89.75
1776;BME280;885;42.626;23.200;2022-10-04T00:32:45;166133.91;;;10.45;88.39
1776;BME280;885;42.626;23.200;2022-10-04T00:35:46;166136.63;;;10.46;88.59
1776;BME280;885;42.626;23.200;2022-10-04T00:38:14;166143.44;;;10.48;88.39
1776;BME280;885;42.626;23.200;2022-10-04T00:40:45;166135.28;;;10.45;89.36
1776;BME280;885;42.626;23.200;2022-10-04T00:43:16;166143.44;;;10.48;91.09
1776;BME280;885;42.626;23.200;2022-10-04T00:45:48;165641.94;;;10.00;92.87
1776;BME280;885;42.626;23.200;2022-10-04T00:48:39;165612.00;;;9.89;92.79
1776;BME280;885;42.626;23.200;2022-10-04T00:51:28;165599.81;;;9.84;93.89
1776;BME280;885;42.626;23.200;2022-10-04T00:54:02;165190.00;;;9.70;92.65
1776;BME280;885;42.626;23.200;2022-10-04T00:56:38;165582.13;;;9.78;92.68
1776;BME280;885;42.626;23.200;2022-10-04T00:59:28;165162.84;;;9.59;91.69
1776;BME280;885;42.626;23.200;2022-10-04T01:02:00;165609.31;;;9.88;92.56
1776;BME280;885;42.626;23.200;2022-10-04T01:04:36;165627.00;;;9.94;91.92
1776;BME280;885;42.626;23.200;2022-10-04T01:07:05;165571.25;;;9.74;92.86
1776;BME280;885;42.626;23.200;2022-10-04T01:09:37;165131.69;;;9.48;94.01
1776;BME280;885;42.626;23.200;2022-10-04T01:12:12;165116.78;;;9.42;92.53
1776;BME280;885;42.626;23.200;2022-10-04T01:14:48;165134.38;;;9.49;92.92
1776;BME280;885;42.626;23.200;2022-10-04T01:17:17;165203.53;;;9.75;91.56
1776;BME280;885;42.626;23.200;2022-10-04T01:19:50;164746.63;;;9.42;92.13
1776;BME280;885;42.626;23.200;2022-10-04T01:22:39;164724.94;;;9.34;90.72
1776;BME280;885;42.626;23.200;2022-10-04T01:25:07;164743.88;;;9.41;91.24
1776;BME280;885;42.626;23.200;2022-10-04T01:27:36;164754.72;;;9.45;90.49
1776;BME280;885;42.626;23.200;2022-10-04T01:30:08;165157.44;;;9.57;90.54
1776;BME280;885;42.626;23.200;2022-10-04T01:32:37;165162.84;;;9.59;92.38
1776;BME280;885;42.626;23.200;2022-10-04T01:35:06;164695.22;;;9.23;95.29
1776;BME280;885;42.626;23.200;2022-10-04T01:37:35;164654.63;;;9.08;96.51
1776;BME280;885;42.626;23.200;2022-10-04T01:40:04;164701.94;;;9.26;95.23
1776;BME280;885;42.626;23.200;2022-10-04T01:42:35;165059.84;;;9.21;96.43
1776;BME280;885;42.626;23.200;2022-10-04T01:45:10;165085.59;;;9.31;94.80
1776;BME280;885;42.626;23.200;2022-10-04T01:47:42;165105.91;;;9.38;93.18
1776;BME280;885;42.626;23.200;2022-10-04T01:50:15;164704.66;;;9.27;93.85
1776;BME280;885;42.626;23.200;2022-10-04T01:52:47;164700.63;;;9.25;94.36
1776;BME280;885;42.626;23.200;2022-10-04T01:55:18;165076.09;;;9.27;95.30
1776;BME280;885;42.626;23.200;2022-10-04T01:57:49;165146.59;;;9.53;91.61
1776;BME280;885;42.626;23.200;2022-10-04T02:00:19;164741.22;;;9.40;91.79
1776;BME280;885;42.626;23.200;2022-10-04T02:02:51;164735.75;;;9.38;92.85
1776;BME280;885;42.626;23.200;2022-10-04T02:05:26;164679.00;;;9.17;94.10
1776;BME280;885;42.626;23.200;2022-10-04T02:08:01;165123.53;;;9.45;93.35
1776;BME280;885;42.626;23.200;2022-10-04T02:10:32;165157.44;;;9.57;91.09
1776;BME280;885;42.626;23.200;2022-10-04T02:13:01;165137.13;;;9.50;93.53
1776;BME280;885;42.626;23.200;2022-10-04T02:15:31;165564.47;;;9.71;93.34
1776;BME280;885;42.626;23.200;2022-10-04T02:18:02;165568.53;;;9.73;93.30
1776;BME280;885;42.626;23.200;2022-10-04T02:20:31;164735.75;;;9.38;92.53
1776;BME280;885;42.626;23.200;2022-10-04T02:22:59;165100.47;;;9.36;94.58
1776;BME280;885;42.626;23.200;2022-10-04T02:25:28;164657.31;;;9.09;94.62
1776;BME280;885;42.626;23.200;2022-10-04T02:27:55;165103.22;;;9.37;94.50
1776;BME280;885;42.626;23.200;2022-10-04T02:30:22;165122.22;;;9.44;95.42
1776;BME280;885;42.626;23.200;2022-10-04T02:32:55;165535.91;;;9.60;94.75
1776;BME280;885;42.626;23.200;2022-10-04T02:35:27;165530.47;;;9.58;95.11
1776;BME280;885;42.626;23.200;2022-10-04T02:38:09;165563.09;;;9.71;95.96
1776;BME280;885;42.626;23.200;2022-10-04T02:40:43;165560.41;;;9.70;95.63
1776;BME280;885;42.626;23.200;2022-10-04T02:43:16;165508.75;;;9.50;96.40
1776;BME280;885;42.626;23.200;2022-10-04T02:45:49;165522.28;;;9.55;96.12
1776;BME280;885;42.626;23.200;2022-10-04T02:48:27;165527.72;;;9.57;96.23
1776;BME280;885;42.626;23.200;2022-10-04T02:50:59;165482.88;;;9.41;96.74
1776;BME280;885;42.626;23.200;2022-10-04T02:53:37;165032.69;;;9.11;97.07
1776;BME280;885;42.626;23.200;2022-10-04T02:56:08;165069.31;;;9.25;96.47
1776;BME280;885;42.626;23.200;2022-10-04T02:58:40;165078.78;;;9.28;97.48
1776;BME280;885;42.626;23.200;2022-10-04T03:01:15;165477.44;;;9.39;98.03
1776;BME280;885;42.626;23.200;2022-10-04T03:03:45;165488.31;;;9.43;97.93
1776;BME280;885;42.626;23.200;2022-10-04T03:06:15;165516.88;;;9.53;97.77
1776;BME280;885;42.626;23.200;2022-10-04T03:08:49;165467.97;;;9.35;98.52
1776;BME280;885;42.626;23.200;2022-10-04T03:11:18;165050.31;;;9.18;99.32
1776;BME280;885;42.626;23.200;2022-10-04T03:13:49;165457.09;;;9.31;99.17
1776;BME280;885;42.626;23.200;2022-10-04T03:16:17;165476.09;;;9.38;99.20
1776;BME280;885;42.626;23.200;2022-10-04T03:18:45;165491.06;;;9.44;99.99
1776;BME280;885;42.626;23.200;2022-10-04T03:21:15;165896.75;;;9.57;99.65
1776;BME280;885;42.626;23.200;2022-10-04T03:23:44;165902.19;;;9.59;99.87
1776;BME280;885;42.626;23.200;2022-10-04T03:26:23;164983.91;;;8.93;100.00
1776;BME280;885;42.626;23.200;2022-10-04T03:28:53;164994.75;;;8.97;99.83
1776;BME280;885;42.626;23.200;2022-10-04T03:31:21;165005.59;;;9.01;98.91
1776;BME280;885;42.626;23.200;2022-10-04T03:33:49;165057.09;;;9.20;98.60
1776;BME280;885;42.626;23.200;2022-10-04T03:36:17;165461.16;;;9.33;97.21
1776;BME280;885;42.626;23.200;2022-10-04T03:38:45;165089.63;;;9.32;96.90
1776;BME280;885;42.626;23.200;2022-10-04T03:41:14;165122.22;;;9.44;94.39
1776;BME280;885;42.626;23.200;2022-10-04T03:43:45;165523.66;;;9.56;95.23
1776;BME280;885;42.626;23.200;2022-10-04T03:46:14;165507.38;;;9.50;94.12
1776;BME280;885;42.626;23.200;2022-10-04T03:48:44;165511.44;;;9.51;93.39
1776;BME280;885;42.626;23.200;2022-10-04T03:51:13;165535.91;;;9.60;93.31
1776;BME280;885;42.626;23.200;2022-10-04T03:53:43;165565.81;;;9.72;93.44
1776;BME280;885;42.626;23.200;2022-10-04T03:56:14;165550.84;;;9.66;92.56
1776;BME280;885;42.626;23.200;2022-10-04T03:58:43;165533.16;;;9.59;94.35
1776;BME280;885;42.626;23.200;2022-10-04T04:01:25;165563.09;;;9.71;94.54
1776;BME280;885;42.626;23.200;2022-10-04T04:04:01;165966.19;;;9.83;95.24
1776;BME280;885;42.626;23.200;2022-10-04T04:06:36;165552.22;;;9.67;93.65
1776;BME280;885;42.626;23.200;2022-10-04T04:09:08;165116.78;;;9.42;93.89
1776;BME280;885;42.626;23.200;2022-10-04T04:11:44;165124.91;;;9.45;93.50
1776;BME280;885;42.626;23.200;2022-10-04T04:14:19;165542.72;;;9.63;92.71
1776;BME280;885;42.626;23.200;2022-10-04T04:16:47;165567.16;;;9.72;93.58
1776;BME280;885;42.626;23.200;2022-10-04T04:19:16;165552.22;;;9.67;94.97
1776;BME280;885;42.626;23.200;2022-10-04T04:21:44;165516.88;;;9.53;95.14
1776;BME280;885;42.626;23.200;2022-10-04T04:24:16;165544.03;;;9.63;95.04
1776;BME280;885;42.626;23.200;2022-10-04T04:26:53;165533.16;;;9.59;95.59
1776;BME280;885;42.626;23.200;2022-10-04T04:29:23;165520.97;;;9.55;96.43
1776;BME280;885;42.626;23.200;2022-10-04T04:31:56;165488.31;;;9.43;95.35
1776;BME280;885;42.626;23.200;2022-10-04T04:34:26;165506.00;;;9.49;95.57
1776;BME280;885;42.626;23.200;2022-10-04T04:36:57;165514.19;;;9.52;95.96
1776;BME280;885;42.626;23.200;2022-10-04T04:39:26;165473.38;;;9.37;97.41
1776;BME280;885;42.626;23.200;2022-10-04T04:42:15;165038.13;;;9.13;97.59
1776;BME280;885;42.626;23.200;2022-10-04T04:44:49;165077.47;;;9.28;95.56
1776;BME280;885;42.626;23.200;2022-10-04T04:47:26;165467.97;;;9.35;95.50
1776;BME280;885;42.626;23.200;2022-10-04T04:49:56;165499.19;;;9.47;97.08
1776;BME280;885;42.626;23.200;2022-10-04T04:52:26;165508.75;;;9.50;97.60
1776;BME280;885;42.626;23.200;2022-10-04T04:54:54;165462.53;;;9.33;98.53
1776;BME280;885;42.626;23.200;2022-10-04T04:57:23;165488.31;;;9.43;97.69
1776;BME280;885;42.626;23.200;2022-10-04T04:59:54;165451.66;;;9.29;97.92
1776;BME280;885;42.626;23.200;2022-10-04T05:02:27;165024.59;;;9.08;99.32
1776;BME280;885;42.626;23.200;2022-10-04T05:05:13;164970.34;;;8.88;100.00
1776;BME280;885;42.626;23.200;2022-10-04T05:07:40;165382.34;;;9.04;100.00
1776;BME280;885;42.626;23.200;2022-10-04T05:10:26;165370.13;;;8.99;100.00
1776;BME280;885;42.626;23.200;2022-10-04T05:12:56;165400.03;;;9.10;100.00
1776;BME280;885;42.626;23.200;2022-10-04T05:15:26;164971.72;;;8.89;100.00
1776;BME280;885;42.626;23.200;2022-10-04T05:17:54;165360.63;;;8.96;100.00
1776;BME280;885;42.626;23.200;2022-10-04T05:20:21;164993.38;;;8.97;99.78
1776;BME280;885;42.626;23.200;2022-10-04T05:22:48;165376.91;;;9.02;100.00
1776;BME280;885;42.626;23.200;2022-10-04T05:25:24;165393.22;;;9.08;100.00
1776;BME280;885;42.626;23.200;2022-10-04T05:27:52;165364.69;;;8.97;100.00
1776;BME280;885;42.626;23.200;2022-10-04T05:30:36;165375.53;;;9.01;100.00
1776;BME280;885;42.626;23.200;2022-10-04T05:33:07;165461.16;;;9.33;98.24
1776;BME280;885;42.626;23.200;2022-10-04T05:35:56;165862.69;;;9.44;98.29
1776;BME280;885;42.626;23.200;2022-10-04T05:38:34;165854.50;;;9.41;98.04
1776;BME280;885;42.626;23.200;2022-10-04T05:41:07;165817.75;;;9.28;100.00
1776;BME280;885;42.626;23.200;2022-10-04T05:43:36;165835.41;;;9.34;100.00
1776;BME280;885;42.626;23.200;2022-10-04T05:46:12;165459.78;;;9.32;95.35
1776;BME280;885;42.626;23.200;2022-10-04T05:48:41;165484.25;;;9.41;95.30
1776;BME280;885;42.626;23.200;2022-10-04T05:51:13;165504.63;;;9.49;94.18
1776;BME280;885;42.626;23.200;2022-10-04T05:53:44;165937.56;;;9.72;93.39
1776;BME280;885;42.626;23.200;2022-10-04T05:56:23;165959.41;;;9.80;93.99
1776;BME280;885;42.626;23.200;2022-10-04T05:59:00;165988.00;;;9.91;93.69
1776;BME280;885;42.626;23.200;2022-10-04T06:01:40;166384.53;;;10.00;94.00
1776;BME280;885;42.626;23.200;2022-10-04T06:04:23;166375.00;;;9.97;96.01
1776;BME280;885;42.626;23.200;2022-10-04T06:06:56;165963.50;;;9.82;95.10
1776;BME280;885;42.626;23.200;2022-10-04T06:09:38;166387.25;;;10.01;94.57
1776;BME280;885;42.626;23.200;2022-10-04T06:12:10;166429.69;;;10.17;94.90
1776;BME280;885;42.626;23.200;2022-10-04T06:15:06;166462.44;;;10.29;94.52
1776;BME280;885;42.626;23.200;2022-10-04T06:17:48;166855.22;;;10.37;94.31
1776;BME280;885;42.626;23.200;2022-10-04T06:23:22;166459.75;;;10.28;93.60
1776;BME280;885;42.626;23.200;2022-10-04T06:25:55;166467.91;;;10.31;93.46
1776;BME280;885;42.626;23.200;2022-10-04T06:28:28;166061.69;;;10.18;88.48
1776;BME280;885;42.626;23.200;2022-10-04T06:34:06;165647.38;;;10.02;84.21
1776;BME280;885;42.626;23.200;2022-10-04T06:37:04;165614.75;;;9.90;85.88
1776;BME280;885;42.626;23.200;2022-10-04T06:39:46;166087.56;;;10.27;85.13
1776;BME280;885;42.626;23.200;2022-10-04T06:42:42;166128.47;;;10.43;86.45
1776;BME280;885;42.626;23.200;2022-10-04T06:45:40;166563.56;;;10.66;85.07
1776;BME280;885;42.626;23.200;2022-10-04T06:48:31;166586.78;;;10.75;86.74
1776;BME280;885;42.626;23.200;2022-10-04T06:51:11;166143.44;;;10.48;86.16
1776;BME280;885;42.626;23.200;2022-10-04T06:53:53;166159.78;;;10.54;85.14
1776;BME280;885;42.626;23.200;2022-10-04T06:56:34;166169.38;;;10.58;83.75
1776;BME280;885;42.626;23.200;2022-10-04T06:59:17;166585.47;;;10.74;84.40
1776;BME280;885;42.626;23.200;2022-10-04T07:01:49;165768.47;;;10.47;81.93
1776;BME280;885;42.626;23.200;2022-10-04T07:04:24;166158.41;;;10.54;83.37
1776;BME280;885;42.626;23.200;2022-10-04T07:07:13;165674.59;;;10.12;83.20
1776;BME280;885;42.626;23.200;2022-10-04T07:09:53;165715.41;;;10.27;85.79
1776;BME280;885;42.626;23.200;2022-10-04T07:12:23;166159.78;;;10.54;83.71
1776;BME280;885;42.626;23.200;2022-10-04T07:14:52;166618.25;;;10.86;84.61
1776;BME280;885;42.626;23.200;2022-10-04T07:17:25;166668.81;;;11.05;84.17
1776;BME280;885;42.626;23.200;2022-10-04T07:19:53;167099.09;;;11.27;85.02
1776;BME280;885;42.626;23.200;2022-10-04T07:22:26;167148.41;;;11.45;84.03
1776;BME280;885;42.626;23.200;2022-10-04T07:25:05;167079.88;;;11.19;82.37
1776;BME280;885;42.626;23.200;2022-10-04T07:27:45;166708.47;;;11.19;79.71
1776;BME280;885;42.626;23.200;2022-10-04T07:30:15;167142.94;;;11.43;80.86
1776;BME280;885;42.626;23.200;2022-10-04T07:32:43;167148.41;;;11.45;79.91
1776;BME280;885;42.626;23.200;2022-10-04T07:35:25;166787.78;;;11.49;77.93
1776;BME280;885;42.626;23.200;2022-10-04T07:38:05;166759.06;;;11.38;80.09
1776;BME280;885;42.626;23.200;2022-10-04T07:40:37;166780.91;;;11.46;79.36
1776;BME280;885;42.626;23.200;2022-10-04T07:43:11;166744.03;;;11.33;80.08
1776;BME280;885;42.626;23.200;2022-10-04T07:45:45;166708.47;;;11.19;80.20
1776;BME280;885;42.626;23.200;2022-10-04T07:48:14;166697.53;;;11.15;81.08
1776;BME280;885;42.626;23.200;2022-10-04T07:50:48;166741.28;;;11.32;81.18
1776;BME280;885;42.626;23.200;2022-10-04T07:53:26;166735.81;;;11.30;81.28
1776;BME280;885;42.626;23.200;2022-10-04T07:56:01;167137.44;;;11.41;82.90
1776;BME280;885;42.626;23.200;2022-10-04T07:58:41;166236.16;;;10.82;81.99
1776;BME280;885;42.626;23.200;2022-10-04T08:01:20;166625.09;;;10.89;83.47
1776;BME280;885;42.626;23.200;2022-10-04T08:04:03;166637.34;;;10.93;83.96
1776;BME280;885;42.626;23.200;2022-10-04T08:06:34;166656.50;;;11.00;83.34
1776;BME280;885;42.626;23.200;2022-10-04T08:09:24;166615.50;;;10.85;83.90
1776;BME280;885;42.626;23.200;2022-10-04T08:12:01;166637.34;;;10.93;82.71
1776;BME280;885;42.626;23.200;2022-10-04T08:14:48;166664.75;;;11.03;82.35
1776;BME280;885;42.626;23.200;2022-10-04T08:17:31;166686.59;;;11.11;81.67
1776;BME280;885;42.626;23.200;2022-10-04T08:20:17;166689.31;;;11.12;81.93
1776;BME280;885;42.626;23.200;2022-10-04T08:22:56;166275.72;;;10.97;80.85
1776;BME280;885;42.626;23.200;2022-10-04T08:25:31;166741.28;;;11.32;82.20
1776;BME280;885;42.626;23.200;2022-10-04T08:28:03;167178.59;;;11.56;82.10
1776;BME280;885;42.626;23.200;2022-10-04T08:31:03;167173.09;;;11.54;80.46
1776;BME280;885;42.626;23.200;2022-10-04T08:33:46;167203.22;;;11.65;80.63
1776;BME280;885;42.626;23.200;2022-10-04T08:36:26;166812.41;;;11.58;77.89
1776;BME280;885;42.626;23.200;2022-10-04T08:38:56;167260.84;;;11.86;78.06
1776;BME280;885;42.626;23.200;2022-10-04T08:42:00;166869.91;;;11.79;76.14
1776;BME280;885;42.626;23.200;2022-10-04T08:57:59;167343.16;;;12.16;73.94
1776;BME280;885;42.626;23.200;2022-10-04T09:00:40;167332.19;;;12.12;76.96
1776;BME280;885;42.626;23.200;2022-10-04T09:06:37;167350.00;;;12.19;77.16
1776;BME280;885;42.626;23.200;2022-10-04T09:15:19;166869.91;;;11.79;76.83
1776;BME280;885;42.626;23.200;2022-10-04T09:17:53;166782.31;;;11.47;79.35
1776;BME280;885;42.626;23.200;2022-10-04T09:20:37;167269.09;;;11.89;78.31
1776;BME280;885;42.626;23.200;2022-10-04T09:23:23;167362.31;;;12.23;77.30
1776;BME280;885;42.626;23.200;2022-10-04T09:26:11;167389.78;;;12.33;75.73
1776;BME280;885;42.626;23.200;2022-10-04T09:29:20;167804.53;;;12.49;75.65
1776;BME280;885;42.626;23.200;2022-10-04T09:35:28;167860.91;;;12.69;71.84
1776;BME280;885;42.626;23.200;2022-10-04T09:38:18;167481.69;;;12.67;70.98
1776;BME280;885;42.626;23.200;2022-10-04T09:41:11;167904.94;;;12.86;72.16
1776;BME280;885;42.626;23.200;2022-10-04T09:43:59;168387.78;;;13.26;71.37
1776;BME280;885;42.626;23.200;2022-10-04T09:46:46;168405.72;;;13.32;70.79
1776;BME280;885;42.626;23.200;2022-10-04T09:49:33;168430.53;;;13.41;71.09
1776;BME280;885;42.626;23.200;2022-10-04T09:52:15;168013.66;;;13.25;70.70
1776;BME280;885;42.626;23.200;2022-10-04T09:54:57;168422.25;;;13.38;70.90
1776;BME280;885;42.626;23.200;2022-10-04T09:57:41;168061.78;;;13.43;68.83
1776;BME280;885;42.626;23.200;2022-10-04T10:00:14;167979.25;;;13.13;70.04
1776;BME280;885;42.626;23.200;2022-10-04T10:03:17;167946.16;;;13.01;70.34
1776;BME280;885;42.626;23.200;2022-10-04T10:06:07;168016.38;;;13.26;70.03
1776;BME280;885;42.626;23.200;2022-10-04T10:08:45;168474.66;;;13.57;70.96
1776;BME280;885;42.626;23.200;2022-10-04T10:11:22;168105.84;;;13.59;67.69
1776;BME280;885;42.626;23.200;2022-10-04T10:14:32;168550.53;;;13.85;67.51
1776;BME280;885;42.626;23.200;2022-10-04T10:17:11;168579.50;;;13.96;67.24
1776;BME280;885;42.626;23.200;2022-10-04T10:26:28;168086.56;;;13.52;68.00
1776;BME280;885;42.626;23.200;2022-10-04T10:29:30;168023.25;;;13.29;68.63
1776;BME280;885;42.626;23.200;2022-10-04T10:32:24;168086.56;;;13.52;69.69
1776;BME280;885;42.626;23.200;2022-10-04T10:35:18;168545.00;;;13.83;70.55
1776;BME280;885;42.626;23.200;2022-10-04T10:40:58;168583.63;;;13.97;69.50
1776;BME280;885;42.626;23.200;2022-10-04T10:43:43;168520.16;;;13.74;70.89
1776;BME280;885;42.626;23.200;2022-10-04T10:46:41;168097.56;;;13.56;69.80
1776;BME280;885;42.626;23.200;2022-10-04T10:49:25;168496.75;;;13.66;73.46
1776;BME280;885;42.626;23.200;2022-10-04T10:52:23;168567.06;;;13.91;71.15
1776;BME280;885;42.626;23.200;2022-10-04T10:55:15;168553.31;;;13.86;74.03
1776;BME280;885;42.626;23.200;2022-10-04T10:58:20;168583.63;;;13.97;72.40
1776;BME280;885;42.626;23.200;2022-10-04T11:01:01;168589.13;;;13.99;71.26
1776;BME280;885;42.626;23.200;2022-10-04T11:04:05;168594.66;;;14.01;69.82
1776;BME280;885;42.626;23.200;2022-10-04T11:07:02;168609.84;;;14.07;71.36
1776;BME280;885;42.626;23.200;2022-10-04T11:09:59;169017.75;;;14.19;70.60
1776;BME280;885;42.626;23.200;2022-10-04T11:13:02;168625.00;;;14.12;71.24
1776;BME280;885;42.626;23.200;2022-10-04T11:15:49;168612.59;;;14.08;71.44
1776;BME280;885;42.626;23.200;2022-10-04T11:24:57;168542.28;;;13.82;72.98
1776;BME280;885;42.626;23.200;2022-10-04T11:27:39;169003.91;;;14.14;73.22
1776;BME280;885;42.626;23.200;2022-10-04T11:30:17;169017.75;;;14.19;71.42
1776;BME280;885;42.626;23.200;2022-10-04T11:33:14;168642.94;;;14.19;68.91
1776;BME280;885;42.626;23.200;2022-10-04T11:36:05;168622.28;;;14.11;68.23
1776;BME280;885;42.626;23.200;2022-10-04T11:38:56;168620.88;;;14.11;69.15
1776;BME280;885;42.626;23.200;2022-10-04T11:41:45;168642.94;;;14.19;70.03
1776;BME280;885;42.626;23.200;2022-10-04T11:44:33;168602.94;;;14.04;69.84
1776;BME280;885;42.626;23.200;2022-10-04T11:47:17;168593.31;;;14.01;69.16
1776;BME280;885;42.626;23.200;2022-10-04T11:49:58;168578.09;;;13.95;69.18
1776;BME280;885;42.626;23.200;2022-10-04T11:52:54;168527.06;;;13.77;71.24
1776;BME280;885;42.626;23.200;2022-10-04T11:56:03;168987.31;;;14.08;73.22
1776;BME280;885;42.626;23.200;2022-10-04T11:58:45;169039.88;;;14.27;71.72
1776;BME280;885;42.626;23.200;2022-10-04T12:01:43;169092.50;;;14.47;69.94
1776;BME280;885;42.626;23.200;2022-10-04T12:04:30;169103.56;;;14.51;68.25
1776;BME280;885;42.626;23.200;2022-10-04T12:07:22;169134.00;;;14.62;68.11
1776;BME280;885;42.626;23.200;2022-10-04T12:10:00;169197.63;;;14.85;66.90
1776;BME280;885;42.626;23.200;2022-10-04T12:12:51;169250.16;;;15.04;66.28
1776;BME280;885;42.626;23.200;2022-10-04T12:15:35;169243.28;;;15.01;67.55
1776;BME280;885;42.626;23.200;2022-10-04T12:18:34;169283.44;;;15.16;67.80
1776;BME280;885;42.626;23.200;2022-10-04T12:21:34;169341.56;;;15.37;65.56
1776;BME280;885;42.626;23.200;2022-10-04T12:24:17;169477.25;;;15.86;63.15
1776;BME280;885;42.626;23.200;2022-10-04T12:27:08;169408.03;;;15.61;62.82
1776;BME280;885;42.626;23.200;2022-10-04T12:30:18;169341.56;;;15.37;63.03
1776;BME280;885;42.626;23.200;2022-10-04T12:33:00;169344.28;;;15.38;63.89
1776;BME280;885;42.626;23.200;2022-10-04T12:35:36;169319.38;;;15.29;64.88
1776;BME280;885;42.626;23.200;2022-10-04T12:41:10;169275.09;;;15.13;65.41
1776;BME280;885;42.626;23.200;2022-10-04T12:43:52;169376.22;;;15.50;68.33
1776;BME280;885;42.626;23.200;2022-10-04T12:46:31;168765.84;;;14.64;63.80
1776;BME280;885;42.626;23.200;2022-10-04T12:49:12;168792.03;;;14.73;62.99
1776;BME280;885;42.626;23.200;2022-10-04T12:51:50;168714.78;;;14.45;69.93
1776;BME280;885;42.626;23.200;2022-10-04T12:54:31;169078.63;;;14.42;72.24
1776;BME280;885;42.626;23.200;2022-10-04T12:57:06;168127.84;;;13.67;73.58
1776;BME280;885;42.626;23.200;2022-10-04T12:59:52;168596.03;;;14.02;73.04
1776;BME280;885;42.626;23.200;2022-10-04T13:02:51;168633.31;;;14.15;74.29
1776;BME280;885;42.626;23.200;2022-10-04T13:05:25;168660.91;;;14.25;73.46
1776;BME280;885;42.626;23.200;2022-10-04T13:08:05;169063.44;;;14.36;74.20
1776;BME280;885;42.626;23.200;2022-10-04T13:10:43;169100.75;;;14.50;73.22
1776;BME280;885;42.626;23.200;2022-10-04T13:13:38;168735.47;;;14.53;70.09
1776;BME280;885;42.626;23.200;2022-10-04T13:16:15;168724.44;;;14.49;68.89
1776;BME280;885;42.626;23.200;2022-10-04T13:18:52;168729.94;;;14.51;70.84
1776;BME280;885;42.626;23.200;2022-10-04T13:21:56;168752.03;;;14.59;69.94
1776;BME280;885;42.626;23.200;2022-10-04T13:24:27;168763.06;;;14.63;68.96
1776;BME280;885;42.626;23.200;2022-10-04T13:27:00;169114.63;;;14.55;71.52
1776;BME280;885;42.626;23.200;2022-10-04T13:29:31;168745.09;;;14.56;68.03
1776;BME280;885;42.626;23.200;2022-10-04T13:32:09;169185.19;;;14.80;68.56
1776;BME280;885;42.626;23.200;2022-10-04T13:34:44;169239.09;;;15.00;69.40
1776;BME280;885;42.626;23.200;2022-10-04T13:37:24;169363.75;;;15.45;69.34
1776;BME280;885;42.626;23.200;2022-10-04T13:43:04;169396.94;;;15.57;67.42
1776;BME280;885;42.626;23.200;2022-10-04T13:45:47;169344.28;;;15.38;69.18
1776;BME280;885;42.626;23.200;2022-10-04T13:48:38;169277.88;;;15.14;67.25
1776;BME280;885;42.626;23.200;2022-10-04T13:51:27;168825.16;;;14.85;65.73
1776;BME280;885;42.626;23.200;2022-10-04T13:54:07;168779.63;;;14.69;67.93
1776;BME280;885;42.626;23.200;2022-10-04T13:59:43;168712.00;;;14.44;70.81
1776;BME280;885;42.626;23.200;2022-10-04T14:08:47;168214.53;;;13.99;72.05
1776;BME280;885;42.626;23.200;2022-10-04T14:17:40;168082.44;;;13.50;76.29
1776;BME280;885;42.626;23.200;2022-10-04T14:23:42;168035.66;;;13.33;78.32
1776;BME280;885;42.626;23.200;2022-10-04T14:29:58;167964.09;;;13.07;78.60
1776;BME280;885;42.626;23.200;2022-10-04T14:32:57;167929.66;;;12.95;82.21
1776;BME280;885;42.626;23.200;2022-10-04T14:35:31;167964.09;;;13.07;82.01
1776;BME280;885;42.626;23.200;2022-10-04T14:41:28;168020.53;;;13.28;79.29
1776;BME280;885;42.626;23.200;2022-10-04T14:44:33;167993.00;;;13.18;78.31
1776;BME280;885;42.626;23.200;2022-10-04T14:47:17;168498.09;;;13.66;76.80
1776;BME280;885;42.626;23.200;2022-10-04T14:50:01;168572.59;;;13.93;76.22
1776;BME280;885;42.626;23.200;2022-10-04T14:52:42;168630.53;;;14.14;73.80
1776;BME280;885;42.626;23.200;2022-10-04T14:55:28;168616.75;;;14.09;70.05
1776;BME280;885;42.626;23.200;2022-10-04T14:58:06;168591.91;;;14.00;73.25
1776;BME280;885;42.626;23.200;2022-10-04T15:01:04;168502.28;;;13.68;75.85
1776;BME280;885;42.626;23.200;2022-10-04T15:03:43;168092.06;;;13.54;76.43
1776;BME280;885;42.626;23.200;2022-10-04T15:06:27;168081.06;;;13.50;76.87
1776;BME280;885;42.626;23.200;2022-10-04T15:09:36;168083.78;;;13.51;73.92
1776;BME280;885;42.626;23.200;2022-10-04T15:12:37;168476.03;;;13.58;77.51
1776;BME280;885;42.626;23.200;2022-10-04T15:15:30;168063.16;;;13.43;77.71
1776;BME280;885;42.626;23.200;2022-10-04T15:18:03;168433.31;;;13.42;79.28
1776;BME280;885;42.626;23.200;2022-10-04T15:20:44;168444.34;;;13.46;81.83
1776;BME280;885;42.626;23.200;2022-10-04T15:23:17;168415.38;;;13.36;82.05
1776;BME280;885;42.626;23.200;2022-10-04T15:25:55;168382.25;;;13.24;82.33
1776;BME280;885;42.626;23.200;2022-10-04T15:31:27;167990.25;;;13.17;78.09
1776;BME280;885;42.626;23.200;2022-10-04T15:34:02;168004.00;;;13.22;78.20
1776;BME280;885;42.626;23.200;2022-10-04T15:40:04;167991.66;;;13.17;78.19
1776;BME280;885;42.626;23.200;2022-10-04T15:42:39;167596.94;;;13.09;76.84
1776;BME280;885;42.626;23.200;2022-10-04T15:45:33;167918.66;;;12.91;80.71
1776;BME280;885;42.626;23.200;2022-10-04T15:48:24;167896.66;;;12.83;81.48